createdAt,value
2022-09-26T00:00:47.931Z,96905.34
2022-09-26T00:03:14.998Z,96941.25
2022-09-26T00:05:41.613Z,96885.94
2022-09-26T00:08:08.193Z,96931.63
2022-09-26T00:10:34.964Z,96905.28
2022-09-26T00:13:01.617Z,96833.81
2022-09-26T00:15:28.243Z,96928.03
2022-09-26T00:17:54.831Z,96910.69
2022-09-26T00:20:21.390Z,96859.41
2022-09-26T00:22:47.977Z,96809.47
2022-09-26T00:25:14.522Z,96946.59
2022-09-26T00:27:41.082Z,96949.44
2022-09-26T00:30:08.128Z,96950.47
2022-09-26T00:32:34.740Z,96952.28
2022-09-26T00:35:01.293Z,96955.91
2022-09-26T00:37:27.947Z,96897.63
2022-09-26T00:39:54.524Z,96936.19
2022-09-26T00:42:23.094Z,96940.50
2022-09-26T00:44:55.280Z,96931.44
2022-09-26T00:47:25.444Z,96901.94
2022-09-26T00:49:58.548Z,96883.94
2022-09-26T00:52:29.633Z,96926.94
2022-09-26T00:55:01.353Z,96893.59
2022-09-26T00:57:35.681Z,96913.16
2022-09-26T01:00:09.371Z,96916.47
2022-09-26T01:02:36.608Z,96841.31
2022-09-26T01:05:05.763Z,96927.63
2022-09-26T01:07:34.381Z,96900.16
2022-09-26T01:10:05.076Z,96844.66
2022-09-26T01:12:32.732Z,96809.47
2022-09-26T01:14:59.438Z,96906.09
2022-09-26T01:17:26.793Z,96865.47
2022-09-26T01:20:11.678Z,96918.63
2022-09-26T01:22:56.959Z,96917.53
2022-09-26T01:25:55.101Z,96881.75
2022-09-26T01:29:12.816Z,96921.63
2022-09-26T01:32:27.334Z,96915.34
2022-09-26T01:35:18.900Z,96916.75
2022-09-26T01:38:07.300Z,96908.00
2022-09-26T01:40:33.846Z,96903.66
2022-09-26T01:43:20.148Z,96799.56
2022-09-26T01:46:00.719Z,96907.50
2022-09-26T01:48:58.875Z,96902.56
2022-09-26T01:51:36.027Z,96914.66
2022-09-26T01:54:25.482Z,96913.44
2022-09-26T01:56:57.468Z,96914.91
2022-09-26T01:59:40.987Z,96917.16
2022-09-26T02:02:19.241Z,96925.97
2022-09-26T02:04:50.295Z,96929.41
2022-09-26T02:07:23.379Z,96928.09
2022-09-26T02:10:05.568Z,96889.41
2022-09-26T02:12:40.087Z,96931.72
2022-09-26T02:15:15.103Z,96928.81
2022-09-26T02:17:53.179Z,96916.28
2022-09-26T02:20:29.566Z,96928.66
2022-09-26T02:23:03.916Z,96883.56
2022-09-26T02:25:31.542Z,96929.94
2022-09-26T02:27:58.305Z,96924.34
2022-09-26T02:30:24.979Z,96920.66
2022-09-26T02:32:51.579Z,96826.44
2022-09-26T02:35:37.570Z,96909.63
2022-09-26T02:38:06.365Z,96910.50
2022-09-26T02:40:44.918Z,96913.03
2022-09-26T02:43:40.605Z,96903.53
2022-09-26T02:46:49.180Z,96907.59
2022-09-26T02:49:45.509Z,96896.38
2022-09-26T02:52:37.200Z,96903.66
2022-09-26T02:55:10.544Z,96861.19
2022-09-26T02:57:54.876Z,96908.59
2022-09-26T03:00:26.076Z,96895.38
2022-09-26T03:03:12.702Z,96896.66
2022-09-26T03:05:43.183Z,96875.16
2022-09-26T03:08:16.315Z,96896.38
2022-09-26T03:10:44.682Z,96899.31
2022-09-26T03:13:13.350Z,96899.16
2022-09-26T03:15:45.234Z,96897.94
2022-09-26T03:18:19.279Z,96894.63
2022-09-26T03:20:46.806Z,96891.38
2022-09-26T03:23:13.493Z,96793.03
2022-09-26T03:25:40.938Z,96854.25
2022-09-26T03:28:07.575Z,96829.97
2022-09-26T03:30:34.773Z,96875.91
2022-09-26T03:33:03.268Z,96884.41
2022-09-26T03:35:30.323Z,96842.81
2022-09-26T03:37:56.880Z,96839.72
2022-09-26T03:40:23.513Z,96874.88
2022-09-26T03:42:50.250Z,96854.25
2022-09-26T03:45:17.370Z,96877.66
2022-09-26T03:47:43.989Z,96876.66
2022-09-26T03:50:10.820Z,96874.84
2022-09-26T03:52:37.391Z,96880.19
2022-09-26T03:55:04.913Z,96875.31
2022-09-26T03:57:31.527Z,96869.16
2022-09-26T03:59:58.102Z,96763.84
2022-09-26T04:02:25.174Z,96872.97
2022-09-26T04:04:51.945Z,96642.84
2022-09-26T04:07:18.565Z,96872.25
2022-09-26T04:09:45.168Z,96822.69
2022-09-26T04:12:11.802Z,96817.34
2022-09-26T04:14:38.398Z,96856.25
2022-09-26T04:17:05.009Z,96863.25
2022-09-26T04:19:31.851Z,96821.69
2022-09-26T04:21:59.042Z,96831.06
2022-09-26T04:24:25.685Z,96817.81
2022-09-26T04:26:52.322Z,96850.59
2022-09-26T04:29:18.955Z,96840.41
2022-09-26T04:31:45.894Z,96860.34
2022-09-26T04:34:12.882Z,96839.81
2022-09-26T04:36:39.537Z,96829.50
2022-09-26T04:39:06.571Z,96780.56
2022-09-26T04:41:33.641Z,96869.91
2022-09-26T04:44:01.088Z,96867.59
2022-09-26T04:46:31.001Z,96868.59
2022-09-26T04:48:59.788Z,96870.56
2022-09-26T04:51:27.979Z,96752.22
2022-09-26T04:53:54.984Z,96912.66
2022-09-26T04:56:23.754Z,96877.56
2022-09-26T04:58:50.995Z,96879.94
2022-09-26T05:01:20.105Z,96923.28
2022-09-26T05:03:47.362Z,96843.78
2022-09-26T05:06:15.216Z,96805.81
2022-09-26T05:08:44.688Z,96840.56
2022-09-26T05:11:11.380Z,96871.81
2022-09-26T05:13:38.888Z,96794.06
2022-09-26T05:16:08.906Z,96867.56
2022-09-26T05:18:36.338Z,96822.50
2022-09-26T05:21:03.817Z,96852.53
2022-09-26T05:24:08.796Z,96780.91
2022-09-26T05:26:44.492Z,96750.28
2022-09-26T05:29:12.138Z,96818.91
2022-09-26T05:31:40.083Z,96845.81
2022-09-26T05:34:09.593Z,96865.44
2022-09-26T05:36:37.000Z,96854.13
2022-09-26T05:39:05.303Z,96795.44
2022-09-26T05:41:33.619Z,96668.41
2022-09-26T05:44:00.307Z,96849.47
2022-09-26T05:46:31.880Z,96860.00
2022-09-26T05:48:58.531Z,96518.72
2022-09-26T05:51:25.365Z,96746.28
2022-09-26T05:53:52.037Z,96762.31
2022-09-26T05:56:19.812Z,96747.31
2022-09-26T05:58:46.791Z,96825.34
2022-09-26T06:01:18.408Z,96863.19
2022-09-26T06:03:46.723Z,96861.78
2022-09-26T06:06:22.142Z,96863.06
2022-09-26T06:08:49.220Z,96849.22
2022-09-26T06:11:19.128Z,96797.91
2022-09-26T06:13:46.493Z,96776.09
2022-09-26T06:16:18.364Z,96519.28
2022-09-26T06:18:46.968Z,96712.63
2022-09-26T06:21:16.089Z,96849.13
2022-09-26T06:23:42.723Z,96798.22
2022-09-26T06:26:14.935Z,96841.59
2022-09-26T06:28:41.584Z,96847.97
2022-09-26T06:31:13.740Z,96796.63
2022-09-26T06:33:41.246Z,96703.16
2022-09-26T06:36:10.510Z,96725.38
2022-09-26T06:38:38.366Z,96835.00
2022-09-26T06:41:07.446Z,96765.75
2022-09-26T06:43:34.360Z,96601.22
2022-09-26T06:46:01.025Z,96837.88
2022-09-26T06:48:27.779Z,96742.28
2022-09-26T06:50:57.094Z,96681.59
2022-09-26T06:53:24.010Z,96819.44
2022-09-26T06:55:50.636Z,96822.63
2022-09-26T06:58:17.538Z,96816.50
2022-09-26T07:00:44.544Z,96806.22
2022-09-26T07:03:13.538Z,96808.53
2022-09-26T07:05:40.108Z,96795.59
2022-09-26T07:08:07.043Z,96758.09
2022-09-26T07:10:37.663Z,96820.53
2022-09-26T07:13:07.967Z,96752.97
2022-09-26T07:15:36.159Z,96777.03
2022-09-26T07:18:06.497Z,96715.38
2022-09-26T07:20:36.297Z,96613.03
2022-09-26T07:23:10.651Z,96797.72
2022-09-26T07:25:39.655Z,96767.31
2022-09-26T07:28:07.407Z,96681.53
2022-09-26T07:30:34.634Z,96735.16
2022-09-26T07:33:03.767Z,96800.59
2022-09-26T07:35:35.505Z,96687.41
2022-09-26T07:38:02.603Z,96798.00
2022-09-26T07:40:29.301Z,96791.91
2022-09-26T07:43:18.595Z,96797.22
2022-09-26T07:46:04.885Z,96756.22
2022-09-26T07:48:50.254Z,96800.16
2022-09-26T07:51:16.860Z,96791.88
2022-09-26T07:53:43.424Z,96789.41
2022-09-26T07:56:12.746Z,96773.91
2022-09-26T07:58:43.315Z,96778.84
2022-09-26T08:01:12.481Z,96637.56
2022-09-26T08:03:40.302Z,96741.34
2022-09-26T08:06:07.237Z,96727.50
2022-09-26T08:08:34.234Z,96783.47
2022-09-26T08:11:03.894Z,96780.69
2022-09-26T08:13:32.579Z,96784.63
2022-09-26T08:16:06.231Z,96773.84
2022-09-26T08:18:33.229Z,96739.88
2022-09-26T08:21:02.013Z,96698.03
2022-09-26T08:23:29.426Z,96759.00
2022-09-26T08:26:00.409Z,96760.84
2022-09-26T08:28:28.815Z,96642.41
2022-09-26T08:31:00.377Z,96701.72
2022-09-26T08:33:27.232Z,96623.56
2022-09-26T08:35:53.799Z,96566.31
2022-09-26T08:38:20.530Z,96720.97
2022-09-26T08:41:03.731Z,96722.88
2022-09-26T08:43:45.804Z,96718.13
2022-09-26T08:46:45.374Z,96716.69
2022-09-26T08:49:48.225Z,96708.75
2022-09-26T08:52:37.728Z,96712.88
2022-09-26T08:55:18.055Z,96690.94
2022-09-26T08:57:55.496Z,96603.69
2022-09-26T09:00:24.929Z,96690.81
2022-09-26T09:03:10.589Z,96703.19
2022-09-26T09:05:58.767Z,96724.31
2022-09-26T09:08:38.820Z,96693.94
2022-09-26T09:11:33.821Z,96691.06
2022-09-26T09:14:03.513Z,96672.47
2022-09-26T09:16:51.660Z,96675.50
2022-09-26T09:19:23.708Z,96662.97
2022-09-26T09:22:05.916Z,96673.06
2022-09-26T09:24:41.093Z,96666.06
2022-09-26T09:30:43.653Z,96628.97
2022-09-26T09:33:15.795Z,96660.09
2022-09-26T09:36:08.828Z,96662.06
2022-09-26T09:38:39.113Z,96660.34
2022-09-26T09:41:19.733Z,96648.88
2022-09-26T09:44:18.858Z,96654.56
2022-09-26T09:46:45.473Z,96658.19
2022-09-26T09:49:19.631Z,96661.03
2022-09-26T09:51:54.672Z,96665.41
2022-09-26T09:54:30.421Z,96649.03
2022-09-26T09:57:26.265Z,96592.09
2022-09-26T10:00:10.469Z,96628.13
2022-09-26T10:03:01.539Z,96603.72
2022-09-26T10:05:46.762Z,96628.59
2022-09-26T10:08:16.888Z,96613.13
2022-09-26T10:11:00.980Z,96573.13
2022-09-26T10:13:31.572Z,96619.31
2022-09-26T10:16:04.796Z,96618.44
2022-09-26T10:18:31.725Z,96497.59
2022-09-26T10:21:02.622Z,96626.94
2022-09-26T10:23:36.808Z,96621.50
2022-09-26T10:26:07.377Z,96366.22
2022-09-26T10:28:45.288Z,96610.56
2022-09-26T10:31:21.983Z,96600.09
2022-09-26T10:33:58.801Z,96564.19
2022-09-26T10:36:31.430Z,96599.41
2022-09-26T10:39:19.016Z,96593.31
2022-09-26T10:41:46.893Z,96595.22
2022-09-26T10:44:25.983Z,96552.09
2022-09-26T10:46:57.560Z,96471.59
2022-09-26T10:49:34.915Z,96415.28
2022-09-26T10:52:18.653Z,96475.03
2022-09-26T10:55:09.806Z,96568.84
2022-09-26T10:57:39.916Z,96558.63
2022-09-26T11:00:08.589Z,96404.38
2022-09-26T11:02:38.214Z,96481.63
2022-09-26T11:05:24.524Z,96562.41
2022-09-26T11:07:52.520Z,96556.09
2022-09-26T11:10:34.321Z,96513.59
2022-09-26T11:13:05.244Z,96435.63
2022-09-26T11:15:31.968Z,96556.34
2022-09-26T11:17:58.947Z,96539.31
2022-09-26T11:20:55.421Z,96536.56
2022-09-26T11:23:34.798Z,96448.91
2022-09-26T11:26:22.177Z,96297.84
2022-09-26T11:29:02.091Z,96113.97
2022-09-26T11:31:34.888Z,96529.38
2022-09-26T11:34:04.531Z,96515.72
2022-09-26T11:36:49.820Z,96516.69
2022-09-26T11:39:30.987Z,96431.34
2022-09-26T11:42:16.023Z,96423.53
2022-09-26T11:44:56.676Z,96490.88
2022-09-26T11:47:41.459Z,96511.84
2022-09-26T11:50:26.258Z,96517.41
2022-09-26T11:53:09.493Z,96511.81
2022-09-26T11:56:01.560Z,96506.63
2022-09-26T11:58:59.376Z,96506.94
2022-09-26T12:01:42.562Z,96502.50
2022-09-26T12:04:16.174Z,96435.19
2022-09-26T12:06:45.947Z,96490.47
2022-09-26T12:09:35.831Z,96341.31
2022-09-26T12:12:39.677Z,96483.41
2022-09-26T12:15:23.557Z,96484.72
2022-09-26T12:18:02.062Z,96497.28
2022-09-26T12:20:53.164Z,96492.94
2022-09-26T12:23:38.580Z,96490.91
2022-09-26T12:26:23.593Z,96481.53
2022-09-26T12:28:59.181Z,96482.81
2022-09-26T12:31:44.823Z,96479.13
2022-09-26T12:34:41.596Z,96475.44
2022-09-26T12:37:33.720Z,96471.16
2022-09-26T12:40:18.421Z,96472.84
2022-09-26T12:42:54.071Z,96475.25
2022-09-26T12:45:43.584Z,96474.06
2022-09-26T12:48:39.181Z,96465.56
2022-09-26T12:51:33.411Z,96404.97
2022-09-26T12:54:15.629Z,96418.50
2022-09-26T12:56:54.750Z,96433.47
2022-09-26T12:59:27.377Z,96450.53
2022-09-26T13:02:10.923Z,96452.16
2022-09-26T13:04:46.989Z,96460.53
2022-09-26T13:07:41.566Z,96452.84
2022-09-26T13:10:31.820Z,96452.44
2022-09-26T13:13:33.408Z,96444.34
2022-09-26T13:16:18.687Z,96434.97
2022-09-26T13:18:49.942Z,96445.47
2022-09-26T13:21:21.548Z,96412.75
2022-09-26T13:23:55.893Z,96404.22
2022-09-26T13:26:42.728Z,96371.88
2022-09-26T13:29:18.165Z,96437.88
2022-09-26T13:31:55.493Z,96422.50
2022-09-26T13:34:29.429Z,96414.66
2022-09-26T13:36:59.447Z,96416.84
2022-09-26T13:39:52.795Z,96345.22
2022-09-26T13:42:39.166Z,96382.22
2022-09-26T13:45:22.427Z,96410.16
2022-09-26T13:47:56.829Z,96403.41
2022-09-26T13:50:38.531Z,96403.94
2022-09-26T13:53:40.544Z,96397.25
2022-09-26T13:56:32.079Z,96397.41
2022-09-26T13:59:23.456Z,96395.09
2022-09-26T14:02:19.898Z,96380.91
2022-09-26T14:04:48.247Z,96369.78
2022-09-26T14:08:02.278Z,96376.25
2022-09-26T14:10:37.771Z,96294.94
2022-09-26T14:13:18.191Z,96378.34
2022-09-26T14:15:50.868Z,96384.50
2022-09-26T14:18:38.607Z,96380.00
2022-09-26T14:21:12.601Z,96378.63
2022-09-26T14:23:47.580Z,96373.75
2022-09-26T14:26:21.324Z,96380.44
2022-09-26T14:28:52.992Z,96291.28
2022-09-26T14:31:25.896Z,96374.44
2022-09-26T14:34:10.907Z,96373.19
2022-09-26T14:36:38.049Z,96373.53
2022-09-26T14:39:05.826Z,96295.75
2022-09-26T14:41:34.970Z,96279.22
2022-09-26T14:44:04.690Z,96361.13
2022-09-26T14:46:35.503Z,96334.81
2022-09-26T14:49:05.503Z,96377.41
2022-09-26T14:51:41.601Z,96310.06
2022-09-26T14:54:39.661Z,96368.97
2022-09-26T14:57:08.510Z,96375.59
2022-09-26T14:59:35.358Z,96371.63
2022-09-26T15:02:17.165Z,96365.97
2022-09-26T15:05:06.808Z,96331.84
2022-09-26T15:07:46.626Z,96374.88
2022-09-26T15:10:13.695Z,96371.53
2022-09-26T15:12:48.400Z,96363.44
2022-09-26T15:15:18.383Z,96357.50
2022-09-26T15:17:53.831Z,96375.66
2022-09-26T15:20:22.664Z,96367.97
2022-09-26T15:22:50.136Z,96375.22
2022-09-26T15:25:25.057Z,96374.59
2022-09-26T15:27:55.764Z,96362.19
2022-09-26T15:30:27.299Z,96374.03
2022-09-26T15:32:58.186Z,96367.94
2022-09-26T15:35:27.203Z,96349.78
2022-09-26T15:38:12.960Z,96321.06
2022-09-26T15:40:39.640Z,96324.63
2022-09-26T15:43:09.715Z,96373.19
2022-09-26T15:45:46.365Z,96368.50
2022-09-26T15:48:19.193Z,96368.81
2022-09-26T15:51:11.246Z,96375.13
2022-09-26T15:53:50.416Z,96366.59
2022-09-26T15:56:47.467Z,96381.09
2022-09-26T15:59:20.093Z,96368.13
2022-09-26T16:01:52.399Z,96381.28
2022-09-26T16:04:30.786Z,96384.25
2022-09-26T16:07:00.472Z,96377.97
2022-09-26T16:09:33.831Z,96381.13
2022-09-26T16:12:20.702Z,96376.25
2022-09-26T16:15:16.966Z,96382.19
2022-09-26T16:17:52.467Z,96287.63
2022-09-26T16:20:19.144Z,96393.03
2022-09-26T16:22:51.727Z,96387.66
2022-09-26T16:25:18.756Z,96391.50
2022-09-26T16:27:59.483Z,96389.34
2022-09-26T16:30:27.149Z,96391.41
2022-09-26T16:33:18.086Z,96310.41
2022-09-26T16:35:47.315Z,96385.78
2022-09-26T16:38:29.234Z,96262.38
2022-09-26T16:41:09.860Z,96379.28
2022-09-26T16:43:38.484Z,96382.09
2022-09-26T16:46:14.716Z,96377.59
2022-09-26T16:48:42.518Z,96377.91
2022-09-26T16:51:14.303Z,96376.59
2022-09-26T16:53:45.224Z,96379.09
2022-09-26T16:56:19.199Z,96372.66
2022-09-26T16:58:58.875Z,96333.00
2022-09-26T17:01:44.663Z,96401.41
2022-09-26T17:04:20.015Z,96052.09
2022-09-26T17:06:47.719Z,96384.16
2022-09-26T17:09:29.828Z,96387.69
2022-09-26T17:12:12.272Z,96376.97
2022-09-26T17:14:41.334Z,96396.63
2022-09-26T17:17:16.262Z,96378.41
2022-09-26T17:19:45.360Z,96379.00
2022-09-26T17:22:16.611Z,96390.38
2022-09-26T17:24:43.604Z,96316.09
2022-09-26T17:27:16.557Z,96169.34
2022-09-26T17:29:48.944Z,96387.50
2022-09-26T17:32:28.536Z,96393.13
2022-09-26T17:35:00.935Z,96330.72
2022-09-26T17:37:28.424Z,96215.16
2022-09-26T17:39:56.001Z,96376.78
2022-09-26T17:42:23.379Z,96390.78
2022-09-26T17:44:50.573Z,96343.31
2022-09-26T17:47:19.273Z,96387.84
2022-09-26T17:49:56.157Z,96245.69
2022-09-26T17:52:25.888Z,96372.81
2022-09-26T17:54:57.494Z,96254.25
2022-09-26T17:57:25.676Z,96382.81
2022-09-26T17:59:55.106Z,96340.84
2022-09-26T18:02:36.530Z,96383.09
2022-09-26T18:05:10.762Z,96393.94
2022-09-26T18:07:41.033Z,96396.94
2022-09-26T18:10:17.166Z,96391.59
2022-09-26T18:12:45.256Z,96389.72
2022-09-26T18:15:16.232Z,96386.75
2022-09-26T18:17:43.590Z,96385.19
2022-09-26T18:20:10.280Z,96393.41
2022-09-26T18:22:36.966Z,96390.31
2022-09-26T18:25:07.911Z,96371.50
2022-09-26T18:27:40.650Z,96365.09
2022-09-26T18:30:11.750Z,96021.53
2022-09-26T18:32:41.731Z,96324.31
2022-09-26T18:35:31.369Z,96349.22
2022-09-26T18:37:58.783Z,96239.47
2022-09-26T18:40:28.573Z,96353.25
2022-09-26T18:42:57.841Z,96343.19
2022-09-26T18:45:29.671Z,96354.56
2022-09-26T18:47:57.097Z,96182.31
2022-09-26T18:50:31.739Z,95900.78
2022-09-26T18:52:58.414Z,96345.31
2022-09-26T18:55:45.053Z,96296.38
2022-09-26T18:58:40.421Z,96341.31
2022-09-26T19:01:20.355Z,96335.16
2022-09-26T19:03:48.581Z,96306.06
2022-09-26T19:06:19.973Z,96332.69
2022-09-26T19:08:49.780Z,96325.81
2022-09-26T19:11:22.516Z,96204.28
2022-09-26T19:13:55.102Z,96318.59
2022-09-26T19:16:23.264Z,96332.13
2022-09-26T19:18:50.500Z,96315.03
2022-09-26T19:21:28.555Z,96254.50
2022-09-26T19:23:55.640Z,96192.25
2022-09-26T19:26:27.738Z,96296.69
2022-09-26T19:28:56.788Z,96323.22
2022-09-26T19:31:23.699Z,96264.25
2022-09-26T19:33:50.789Z,96271.63
2022-09-26T19:36:19.492Z,96296.16
2022-09-26T19:38:46.192Z,96299.41
2022-09-26T19:41:13.193Z,96319.22
2022-09-26T19:43:39.910Z,96308.56
2022-09-26T19:46:13.345Z,96294.91
2022-09-26T19:48:42.281Z,96298.84
2022-09-26T19:51:13.046Z,96259.72
2022-09-26T19:53:39.763Z,96207.66
2022-09-26T19:56:07.052Z,96103.47
2022-09-26T19:58:33.933Z,96295.66
2022-09-26T20:01:06.904Z,96289.28
2022-09-26T20:03:39.924Z,96199.88
2022-09-26T20:06:26.400Z,96284.50
2022-09-26T20:09:00.449Z,96290.53
2022-09-26T20:11:28.177Z,96283.69
2022-09-26T20:14:13.211Z,96238.69
2022-09-26T20:16:42.307Z,96283.06
2022-09-26T20:19:16.101Z,96289.47
2022-09-26T20:21:43.006Z,96204.44
2022-09-26T20:24:16.470Z,96247.16
2022-09-26T20:26:43.409Z,96291.13
2022-09-26T20:29:14.982Z,96293.94
2022-09-26T20:31:44.392Z,96225.22
2022-09-26T20:34:11.625Z,96279.56
2022-09-26T20:36:42.408Z,96266.38
2022-09-26T20:39:17.512Z,95973.78
2022-09-26T20:41:44.353Z,96261.66
2022-09-26T20:44:15.974Z,96226.66
2022-09-26T20:46:56.272Z,96272.97
2022-09-26T20:49:30.054Z,96274.59
2022-09-26T20:51:58.347Z,96270.47
2022-09-26T20:54:30.635Z,96170.44
2022-09-26T20:56:58.685Z,96280.19
2022-09-26T20:59:26.322Z,96241.09
2022-09-26T21:01:54.588Z,96282.84
2022-09-26T21:04:29.806Z,96166.97
2022-09-26T21:06:56.665Z,96296.69
2022-09-26T21:09:23.266Z,96281.47
2022-09-26T21:11:50.010Z,96283.47
2022-09-26T21:14:18.171Z,96277.59
2022-09-26T21:16:51.890Z,96271.13
2022-09-26T21:19:23.841Z,96277.59
2022-09-26T21:21:52.094Z,96270.56
2022-09-26T21:24:25.460Z,96197.25
2022-09-26T21:26:52.106Z,96270.34
2022-09-26T21:29:18.743Z,96255.16
2022-09-26T21:31:49.159Z,96263.41
2022-09-26T21:34:27.767Z,96192.91
2022-09-26T21:36:56.987Z,96260.84
2022-09-26T21:39:25.625Z,96241.16
2022-09-26T21:41:55.952Z,96209.66
2022-09-26T21:44:34.086Z,96229.09
2022-09-26T21:47:00.710Z,96249.69
2022-09-26T21:49:27.377Z,96200.50
2022-09-26T21:52:02.589Z,96247.88
2022-09-26T21:54:36.484Z,96182.28
2022-09-26T21:57:10.019Z,96227.31
2022-09-26T21:59:37.367Z,96223.91
2022-09-26T22:02:04.292Z,96229.75
2022-09-26T22:04:30.975Z,96169.97
2022-09-26T22:06:57.660Z,96205.84
2022-09-26T22:09:24.314Z,96196.00
2022-09-26T22:11:50.947Z,96206.41
2022-09-26T22:14:17.606Z,96195.81
2022-09-26T22:16:44.346Z,96034.03
2022-09-26T22:19:11.103Z,96117.44
2022-09-26T22:21:37.758Z,95955.72
2022-09-26T22:24:04.421Z,96200.19
2022-09-26T22:26:31.044Z,96171.50
2022-09-26T22:28:57.635Z,96174.97
2022-09-26T22:31:24.321Z,96055.00
2022-09-26T22:33:50.940Z,96160.31
2022-09-26T22:36:17.657Z,96164.72
2022-09-26T22:38:45.161Z,96169.19
2022-09-26T22:41:11.779Z,96180.28
2022-09-26T22:43:38.412Z,96171.34
2022-09-26T22:46:08.110Z,96164.13
2022-09-26T22:48:43.324Z,96147.69
2022-09-26T22:51:10.154Z,96160.22
2022-09-26T22:53:38.135Z,96170.41
2022-09-26T22:56:05.854Z,96187.88
2022-09-26T22:58:41.582Z,96030.03
2022-09-26T23:01:11.601Z,96169.03
2022-09-26T23:03:38.793Z,96166.66
2022-09-26T23:06:05.942Z,96101.47
2022-09-26T23:08:36.175Z,96150.97
2022-09-26T23:11:04.140Z,96173.47
2022-09-26T23:13:32.651Z,96173.03
2022-09-26T23:16:13.940Z,96165.81
2022-09-26T23:18:41.704Z,96171.41
2022-09-26T23:21:09.338Z,96170.50
2022-09-26T23:23:36.837Z,96170.03
2022-09-26T23:26:05.815Z,96163.28
2022-09-26T23:28:33.812Z,96047.94
2022-09-26T23:31:05.939Z,96129.63
2022-09-26T23:33:33.147Z,96154.41
2022-09-26T23:36:00.692Z,96098.25
2022-09-26T23:38:27.847Z,95953.41
2022-09-26T23:40:55.001Z,96136.91
2022-09-26T23:43:22.094Z,96149.16
2022-09-26T23:45:49.606Z,96142.66
2022-09-26T23:48:16.474Z,96134.13
2022-09-26T23:50:44.680Z,96137.34
2022-09-26T23:53:11.672Z,96130.75
2022-09-26T23:55:38.256Z,96131.38
2022-09-26T23:58:04.979Z,96130.84
